Time;durP1;ratioP1;P1;durP2;ratioP2;P2;SDS_P1;SDS_P2;PMS_P1;PMS_P2;Temp;Humidity;BMP_temperature;BMP_pressure;BME280_temperature;BME280_humidity;BME280_pressure;Samples;Min_cycle;Max_cycle;Signal;HPM_P1;HPM_P2
2023/05/09 00:00:00;;;;;;;195.80;93.50;;;14.40;99.90;;;;;;5054438;28;20036;-75
2023/05/09 00:02:25;;;;;;;170.15;90.47;;;14.40;99.90;;;;;;5047635;28;20503;-76
2023/05/09 00:04:51;;;;;;;179.45;94.05;;;14.40;99.90;;;;;;5056986;28;20036;-76
2023/05/09 00:07:16;;;;;;;177.65;93.15;;;14.50;99.90;;;;;;5039956;28;20074;-76
2023/05/09 00:09:42;;;;;;;214.15;100.15;;;14.50;99.90;;;;;;5040129;28;20101;-75
2023/05/09 00:12:08;;;;;;;181.63;93.05;;;14.40;99.90;;;;;;5039985;28;20033;-76
2023/05/09 00:14:33;;;;;;;186.07;92.85;;;14.40;99.90;;;;;;5065091;28;20091;-76
2023/05/09 00:16:59;;;;;;;273.40;105.22;;;14.40;99.90;;;;;;5056461;28;20494;-76
2023/05/09 00:19:25;;;;;;;209.80;97.35;;;14.40;99.90;;;;;;5056470;28;20097;-76
2023/05/09 00:21:50;;;;;;;185.60;91.72;;;14.40;99.90;;;;;;5054712;28;20028;-76
2023/05/09 00:24:16;;;;;;;182.27;87.28;;;14.40;99.90;;;;;;5038461;28;20174;-76
2023/05/09 00:26:42;;;;;;;269.65;90.43;;;14.30;99.90;;;;;;5055888;28;20037;-76
2023/05/09 00:29:07;;;;;;;285.25;97.90;;;14.40;99.90;;;;;;5045244;28;20043;-76
2023/05/09 00:31:33;;;;;;;156.02;80.78;;;14.30;99.90;;;;;;5062159;28;20028;-75
2023/05/09 00:33:58;;;;;;;287.63;103.43;;;14.30;99.90;;;;;;5056248;28;20119;-76
2023/05/09 00:36:24;;;;;;;187.48;90.95;;;14.40;99.90;;;;;;5056351;28;20068;-76
2023/05/09 00:38:49;;;;;;;139.77;78.25;;;14.40;99.90;;;;;;5039600;28;20044;-76
2023/05/09 00:41:15;;;;;;;131.38;78.57;;;14.40;99.90;;;;;;5028936;28;20099;-75
2023/05/09 00:43:40;;;;;;;144.48;82.70;;;14.40;99.90;;;;;;5038644;28;20043;-76
2023/05/09 00:46:06;;;;;;;131.40;79.22;;;14.40;99.90;;;;;;5075860;28;20050;-76
2023/05/09 00:48:32;;;;;;;135.02;78.07;;;14.40;99.90;;;;;;5076032;28;20042;-76
2023/05/09 00:50:57;;;;;;;135.05;77.70;;;14.30;99.90;;;;;;5051293;28;20089;-75
2023/05/09 00:53:23;;;;;;;145.50;80.55;;;14.30;99.90;;;;;;5055220;28;20051;-76
2023/05/09 00:55:49;;;;;;;151.15;79.40;;;14.30;99.90;;;;;;5075250;28;20036;-75
2023/05/09 00:58:15;;;;;;;140.45;80.15;;;14.20;99.90;;;;;;5075906;28;20038;-76
2023/05/09 01:00:42;;;;;;;156.48;83.43;;;14.20;99.90;;;;;;5069698;28;20024;-76
2023/05/09 01:03:08;;;;;;;153.13;80.60;;;14.20;99.90;;;;;;5039493;28;20371;-76
2023/05/09 01:05:57;;;;;;;151.13;74.88;;;14.10;99.90;;;;;;5038759;28;20193;-76
2023/05/09 01:08:48;;;;;;;300.30;98.25;;;14.00;99.90;;;;;;5047789;28;20554;-75
2023/05/09 01:11:55;;;;;;;347.60;101.95;;;14.00;99.90;;;;;;5043485;28;20048;-76
2023/05/09 01:14:44;;;;;;;127.75;71.30;;;13.90;99.90;;;;;;4951653;28;20051;-76
2023/05/09 01:17:25;;;;;;;187.55;79.38;;;13.90;99.90;;;;;;4956072;28;20049;-75
2023/05/09 01:20:09;;;;;;;243.60;90.38;;;13.90;99.90;;;;;;5028417;28;20049;-76
2023/05/09 01:22:36;;;;;;;179.63;78.45;;;13.90;99.90;;;;;;5055788;28;20041;-76
2023/05/09 01:25:20;;;;;;;201.93;83.80;;;13.80;99.90;;;;;;5038464;28;20037;-76
2023/05/09 01:28:04;;;;;;;;;;;13.80;99.90;;;;;;5055441;28;20494;-76
2023/05/09 01:30:31;;;;;;;179.75;81.55;;;13.80;99.90;;;;;;5054289;28;20023;-76
2023/05/09 01:33:00;;;;;;;162.90;82.65;;;13.80;99.90;;;;;;5054544;28;20049;-76
2023/05/09 01:35:27;;;;;;;175.25;80.95;;;13.80;99.90;;;;;;5046620;28;20063;-76
2023/05/09 01:37:54;;;;;;;131.35;66.97;;;13.80;99.90;;;;;;5054927;28;20044;-76
2023/05/09 01:40:22;;;;;;;236.40;83.20;;;13.80;99.90;;;;;;5053970;28;20032;-76
2023/05/09 01:43:00;;;;;;;306.48;89.82;;;13.70;99.90;;;;;;5054747;28;20044;-76
2023/05/09 01:45:28;;;;;;;172.45;74.55;;;13.70;99.90;;;;;;5054372;28;20391;-76
2023/05/09 01:47:56;;;;;;;136.50;75.50;;;13.70;99.90;;;;;;5053820;28;20048;-76
2023/05/09 01:50:22;;;;;;;165.70;74.38;;;13.70;99.90;;;;;;5062244;28;20051;-76
2023/05/09 01:52:51;;;;;;;268.23;80.78;;;13.70;99.90;;;;;;5054724;28;20068;-76
2023/05/09 01:55:18;;;;;;;351.98;96.60;;;13.60;99.90;;;;;;5054878;28;20043;-77
2023/05/09 01:57:44;;;;;;;214.75;82.28;;;13.60;99.90;;;;;;5053851;28;20051;-76
2023/05/09 02:00:13;;;;;;;201.73;80.72;;;13.60;99.90;;;;;;5052743;28;20041;-76
2023/05/09 02:02:39;;;;;;;248.90;93.95;;;13.70;99.90;;;;;;5054320;28;20048;-76
2023/05/09 02:05:07;;;;;;;247.02;94.25;;;13.60;99.90;;;;;;5053855;28;20494;-76
2023/05/09 02:07:33;;;;;;;212.55;92.72;;;13.70;99.90;;;;;;5046514;28;20391;-76
2023/05/09 02:10:01;;;;;;;224.95;89.80;;;13.70;99.90;;;;;;5074479;28;20067;-76
2023/05/09 02:12:27;;;;;;;154.55;79.45;;;13.70;99.90;;;;;;5032459;28;20083;-76
2023/05/09 02:14:52;;;;;;;165.55;80.20;;;13.70;99.90;;;;;;5053518;28;20032;-76
2023/05/09 02:17:18;;;;;;;208.25;81.00;;;13.70;99.90;;;;;;5053891;28;20422;-76
2023/05/09 02:19:44;;;;;;;193.82;77.50;;;13.70;99.90;;;;;;5053958;28;20040;-77
2023/05/09 02:22:11;;;;;;;139.77;72.75;;;13.70;99.90;;;;;;5035793;28;20040;-76
2023/05/09 02:24:37;;;;;;;187.52;75.95;;;13.70;99.90;;;;;;5054322;28;20120;-76
2023/05/09 02:27:03;;;;;;;167.25;76.80;;;13.70;99.90;;;;;;5048626;28;20534;-76
2023/05/09 02:29:40;;;;;;;133.30;70.45;;;13.60;99.90;;;;;;5074166;28;20044;-77
2023/05/09 02:32:14;;;;;;;232.82;85.38;;;13.60;99.90;;;;;;5056371;28;20127;-76
2023/05/09 02:34:39;;;;;;;;;;;13.60;99.90;;;;;;5034524;28;20029;-77
2023/05/09 02:37:06;;;;;;;366.70;96.80;;;13.50;99.90;;;;;;5017670;28;19946;-76
2023/05/09 02:39:32;;;;;;;174.07;70.82;;;13.50;99.90;;;;;;5042590;28;20036;-76
2023/05/09 02:42:20;;;;;;;387.42;96.47;;;13.50;99.90;;;;;;5058072;28;20040;-76
2023/05/09 02:44:46;;;;;;;325.92;103.93;;;13.50;99.90;;;;;;5053874;28;20158;-76
2023/05/09 02:47:11;;;;;;;225.63;78.57;;;13.40;99.90;;;;;;5037404;28;20123;-76
2023/05/09 02:49:37;;;;;;;187.68;84.43;;;13.40;99.90;;;;;;5053926;28;20039;-76
2023/05/09 02:52:03;;;;;;;234.30;93.47;;;13.40;99.90;;;;;;5052763;28;20039;-76
2023/05/09 02:54:28;;;;;;;203.93;92.60;;;13.40;99.90;;;;;;5052589;28;20503;-76
2023/05/09 02:56:54;;;;;;;185.23;87.43;;;13.40;99.90;;;;;;5045251;28;20075;-76
2023/05/09 02:59:20;;;;;;;142.75;73.07;;;13.40;99.90;;;;;;5037106;28;20387;-76
2023/05/09 03:01:46;;;;;;;204.88;79.20;;;13.40;99.90;;;;;;5052037;28;20032;-76
2023/05/09 03:04:11;;;;;;;168.15;73.55;;;13.40;99.90;;;;;;5042575;28;20177;-76
2023/05/09 03:06:37;;;;;;;222.48;83.85;;;13.40;99.90;;;;;;5033606;28;20045;-76
2023/05/09 03:09:03;;;;;;;169.55;82.28;;;13.40;99.90;;;;;;5041107;28;20413;-76
2023/05/09 03:11:29;;;;;;;227.55;89.15;;;13.30;99.90;;;;;;5052949;28;20055;-76
2023/05/09 03:13:55;;;;;;;201.85;85.53;;;13.30;99.90;;;;;;5045349;28;20048;-76
2023/05/09 03:16:21;;;;;;;263.63;92.95;;;13.30;99.90;;;;;;5053448;28;20698;-76
2023/05/09 03:18:46;;;;;;;231.85;91.97;;;13.30;99.90;;;;;;5060850;28;20048;-76
2023/05/09 03:21:12;;;;;;;195.00;90.68;;;13.30;99.90;;;;;;5057134;28;20375;-76
2023/05/09 03:23:38;;;;;;;429.45;111.68;;;13.40;99.90;;;;;;5053426;28;20037;-76
2023/05/09 03:26:04;;;;;;;245.65;102.10;;;13.40;99.90;;;;;;5036738;28;20044;-76
2023/05/09 03:28:30;;;;;;;269.77;109.00;;;13.50;99.90;;;;;;5053461;28;20044;-76
2023/05/09 03:30:55;;;;;;;296.48;109.18;;;13.50;99.90;;;;;;5055593;28;20036;-76
2023/05/09 03:33:21;;;;;;;293.33;113.68;;;13.50;99.90;;;;;;5056519;28;20085;-76
2023/05/09 03:35:46;;;;;;;387.92;122.03;;;13.50;99.90;;;;;;5048041;28;20116;-76
2023/05/09 03:38:12;;;;;;;338.98;119.32;;;13.60;99.90;;;;;;5057217;28;20123;-76
2023/05/09 03:40:37;;;;;;;365.83;118.40;;;13.60;99.90;;;;;;5056219;28;20517;-76
2023/05/09 03:43:03;;;;;;;277.88;111.97;;;13.60;99.90;;;;;;5057217;28;20506;-76
2023/05/09 03:45:28;;;;;;;277.80;106.80;;;13.70;99.90;;;;;;5043660;28;20063;-76
2023/05/09 03:47:54;;;;;;;260.10;110.47;;;13.70;99.90;;;;;;5068655;28;20411;-76
2023/05/09 03:50:20;;;;;;;402.95;124.15;;;13.70;99.90;;;;;;5074533;28;20139;-76
2023/05/09 03:52:46;;;;;;;332.85;121.30;;;13.80;99.90;;;;;;5040120;28;20143;-76
2023/05/09 03:55:11;;;;;;;372.35;118.88;;;13.80;99.90;;;;;;5057062;28;20033;-76
2023/05/09 03:57:37;;;;;;;291.60;118.80;;;13.80;99.90;;;;;;5056789;28;20472;-76
2023/05/09 04:00:05;;;;;;;371.83;125.75;;;13.80;99.90;;;;;;5058773;28;20075;-76
2023/05/09 04:02:32;;;;;;;340.13;117.30;;;13.80;99.90;;;;;;5054785;28;20051;-76
2023/05/09 04:04:58;;;;;;;353.17;122.45;;;13.80;99.90;;;;;;5056508;28;20101;-76
2023/05/09 04:07:23;;;;;;;392.20;130.75;;;13.80;99.90;;;;;;5056842;28;20044;-76
2023/05/09 04:09:49;;;;;;;480.13;139.95;;;13.90;99.90;;;;;;5060521;28;20036;-76
2023/05/09 04:12:14;;;;;;;368.88;121.47;;;13.90;99.90;;;;;;5054141;28;20044;-76
2023/05/09 04:14:40;;;;;;;298.98;117.95;;;14.00;99.90;;;;;;5051923;28;20041;-76
2023/05/09 04:17:06;;;;;;;293.65;118.90;;;14.00;99.90;;;;;;5060680;28;20115;-76
2023/05/09 04:19:31;;;;;;;348.20;121.45;;;13.90;99.90;;;;;;5051749;28;20035;-76
2023/05/09 04:21:57;;;;;;;424.83;130.43;;;14.00;99.90;;;;;;5070901;28;20037;-76
2023/05/09 04:24:22;;;;;;;311.67;113.10;;;14.00;99.90;;;;;;5055308;28;20044;-76
2023/05/09 04:26:48;;;;;;;332.95;121.88;;;14.00;99.90;;;;;;5064388;28;20063;-76
2023/05/09 04:29:14;;;;;;;309.15;119.78;;;14.00;99.90;;;;;;5056498;28;20128;-76
2023/05/09 04:31:40;;;;;;;371.05;124.03;;;14.00;99.90;;;;;;5055341;28;20051;-76
2023/05/09 04:34:06;;;;;;;319.90;117.07;;;14.10;99.90;;;;;;5056087;28;20032;-76
2023/05/09 04:36:32;;;;;;;367.02;119.65;;;14.10;99.90;;;;;;5056009;28;20090;-76
2023/05/09 04:38:58;;;;;;;222.98;107.38;;;14.10;99.90;;;;;;5054923;28;20041;-76
2023/05/09 04:41:24;;;;;;;404.00;122.95;;;14.10;99.90;;;;;;5038475;28;20048;-76
2023/05/09 04:43:50;;;;;;;267.00;107.95;;;14.10;99.90;;;;;;5039585;28;20047;-76
2023/05/09 04:46:16;;;;;;;250.93;110.07;;;14.10;99.90;;;;;;5056107;28;20052;-76
2023/05/09 04:48:41;;;;;;;287.88;114.28;;;14.20;99.90;;;;;;5056261;28;20505;-76
2023/05/09 04:51:07;;;;;;;453.50;129.90;;;14.10;99.90;;;;;;5039378;28;20040;-76
2023/05/09 04:53:33;;;;;;;267.00;109.70;;;14.20;99.90;;;;;;5054108;28;20498;-76
2023/05/09 04:55:58;;;;;;;253.23;111.88;;;14.20;99.90;;;;;;5059925;28;20429;-77
2023/05/09 04:58:25;;;;;;;279.25;116.18;;;14.20;99.90;;;;;;5049346;28;20037;-76
2023/05/09 05:00:51;;;;;;;344.20;122.50;;;14.20;99.90;;;;;;5066905;28;20074;-76
2023/05/09 05:03:17;;;;;;;308.10;116.93;;;14.20;99.90;;;;;;5061043;28;20045;-76
2023/05/09 05:05:43;;;;;;;331.17;119.70;;;14.20;99.90;;;;;;5053203;28;20402;-76
2023/05/09 05:08:08;;;;;;;302.05;118.85;;;14.20;99.90;;;;;;5060840;28;20089;-76
2023/05/09 05:10:34;;;;;;;326.83;124.13;;;14.20;99.90;;;;;;5075595;28;20047;-76
2023/05/09 05:13:00;;;;;;;307.63;122.82;;;14.30;99.90;;;;;;5056061;28;20137;-76
2023/05/09 05:15:25;;;;;;;305.58;117.57;;;14.30;99.90;;;;;;5038871;28;20063;-76
2023/05/09 05:17:51;;;;;;;261.55;111.93;;;14.30;99.90;;;;;;5038582;28;20033;-76
2023/05/09 05:20:17;;;;;;;239.88;116.35;;;14.30;99.90;;;;;;5030858;28;20037;-76
2023/05/09 05:22:43;;;;;;;270.80;118.50;;;14.40;99.90;;;;;;5052014;28;20487;-76
2023/05/09 05:25:08;;;;;;;313.88;123.53;;;14.40;99.90;;;;;;5038653;28;20127;-76
2023/05/09 05:27:34;;;;;;;236.82;113.75;;;14.50;99.90;;;;;;5062560;28;20040;-76
2023/05/09 05:30:00;;;;;;;224.93;113.40;;;14.50;99.90;;;;;;5065665;28;20516;-76
2023/05/09 05:32:25;;;;;;;279.90;119.95;;;14.50;99.90;;;;;;5051215;28;20109;-76
2023/05/09 05:34:51;;;;;;;262.25;118.82;;;14.50;99.90;;;;;;5054515;28;20037;-76
2023/05/09 05:37:16;;;;;;;317.40;124.15;;;14.60;99.90;;;;;;5053575;28;20166;-75
2023/05/09 05:39:42;;;;;;;303.20;125.50;;;14.60;99.90;;;;;;5052228;28;20044;-75
2023/05/09 05:42:07;;;;;;;330.58;128.32;;;14.70;99.90;;;;;;5053979;28;20126;-74
2023/05/09 05:44:33;;;;;;;239.55;115.57;;;14.70;99.90;;;;;;5062589;28;20500;-76
2023/05/09 05:46:58;;;;;;;244.00;116.90;;;14.70;99.90;;;;;;5066279;28;20465;-76
2023/05/09 05:49:24;;;;;;;251.52;118.68;;;14.80;99.90;;;;;;5058400;28;20068;-76
2023/05/09 05:51:50;;;;;;;223.45;115.68;;;14.90;99.90;;;;;;5065899;28;20448;-76
2023/05/09 05:54:15;;;;;;;260.30;121.68;;;15.00;99.90;;;;;;5073742;28;20052;-76
2023/05/09 05:56:41;;;;;;;233.85;115.30;;;15.00;99.90;;;;;;5068073;28;20512;-76
2023/05/09 05:59:07;;;;;;;249.25;116.45;;;15.00;99.90;;;;;;5066237;28;20051;-76
2023/05/09 06:01:32;;;;;;;269.45;119.10;;;15.00;99.90;;;;;;5049430;28;20119;-76
2023/05/09 06:03:58;;;;;;;294.52;121.75;;;15.10;99.90;;;;;;5066996;28;20441;-76
2023/05/09 06:06:25;;;;;;;257.33;115.93;;;15.10;99.90;;;;;;5074247;28;20036;-76
2023/05/09 06:08:50;;;;;;;209.82;109.38;;;15.20;99.90;;;;;;5065989;28;20068;-76
2023/05/09 06:11:16;;;;;;;217.80;109.63;;;15.20;99.90;;;;;;5051404;28;20519;-76
2023/05/09 06:13:42;;;;;;;179.98;103.30;;;15.30;99.90;;;;;;5050274;28;20042;-76
2023/05/09 06:16:08;;;;;;;198.57;106.32;;;15.40;99.90;;;;;;5054232;28;20032;-76
2023/05/09 06:18:36;;;;;;;207.07;106.80;;;15.50;99.90;;;;;;5054568;28;20029;-76
2023/05/09 06:21:02;;;;;;;170.23;98.47;;;15.50;99.90;;;;;;5036249;28;20043;-75
2023/05/09 06:23:28;;;;;;;183.48;100.72;;;15.60;99.90;;;;;;5054118;28;20094;-76
2023/05/09 06:25:53;;;;;;;166.15;97.90;;;15.60;99.90;;;;;;5053832;28;20498;-76
2023/05/09 06:28:19;;;;;;;176.73;99.28;;;15.60;99.90;;;;;;5053085;28;20048;-76
2023/05/09 06:30:44;;;;;;;148.70;92.28;;;15.60;99.90;;;;;;5052253;28;20078;-76
2023/05/09 06:33:10;;;;;;;169.68;94.65;;;15.60;99.90;;;;;;5056710;28;20047;-76
2023/05/09 06:35:36;;;;;;;166.27;93.13;;;15.60;99.90;;;;;;5065798;28;20039;-76
2023/05/09 06:38:01;;;;;;;144.60;88.13;;;15.60;99.90;;;;;;5073933;28;20047;-76
2023/05/09 06:40:27;;;;;;;117.35;79.25;;;15.70;99.90;;;;;;5074005;28;20044;-76
2023/05/09 06:42:52;;;;;;;143.02;82.72;;;15.70;99.90;;;;;;5069903;28;20070;-76
2023/05/09 06:45:18;;;;;;;108.95;71.18;;;15.70;99.90;;;;;;5063356;28;20037;-76
2023/05/09 06:47:43;;;;;;;121.32;73.10;;;15.80;99.90;;;;;;5030361;28;20097;-78
2023/05/09 06:50:09;;;;;;;121.15;69.32;;;15.90;99.90;;;;;;5033097;28;20040;-76
2023/05/09 06:52:34;;;;;;;113.97;69.57;;;16.00;99.90;;;;;;5050007;28;20051;-76
2023/05/09 06:55:00;;;;;;;96.25;67.82;;;16.10;99.90;;;;;;5053846;28;20129;-76
2023/05/09 06:57:26;;;;;;;114.28;72.50;;;16.20;99.90;;;;;;5050369;28;20483;-76
2023/05/09 06:59:51;;;;;;;103.47;71.20;;;16.20;99.90;;;;;;5035819;28;20116;-76
2023/05/09 07:02:17;;;;;;;92.18;62.50;;;16.30;99.90;;;;;;5051838;28;20116;-76
2023/05/09 07:04:42;;;;;;;110.25;67.80;;;16.40;99.90;;;;;;5048659;28;20190;-74
2023/05/09 07:07:08;;;;;;;100.85;66.88;;;16.40;99.90;;;;;;5055651;28;20571;-75
2023/05/09 07:09:33;;;;;;;98.22;66.13;;;16.50;99.90;;;;;;5061837;28;20127;-75
2023/05/09 07:12:00;;;;;;;100.82;67.18;;;16.50;99.90;;;;;;5035797;28;20176;-74
2023/05/09 07:14:25;;;;;;;85.03;64.53;;;16.50;99.90;;;;;;5053958;28;20123;-74
2023/05/09 07:16:51;;;;;;;82.13;61.72;;;16.60;99.90;;;;;;5035187;28;20462;-75
2023/05/09 07:19:17;;;;;;;87.38;63.08;;;16.50;99.90;;;;;;5046531;28;20083;-75
2023/05/09 07:21:45;;;;;;;86.07;61.47;;;16.60;99.90;;;;;;5101534;22;20118;-76
2023/05/09 07:24:10;;;;;;;88.25;64.20;;;16.50;99.90;;;;;;5110866;28;20384;-74
2023/05/09 07:26:36;;;;;;;89.43;64.30;;;16.60;99.90;;;;;;5076387;28;20036;-74
2023/05/09 07:29:04;;;;;;;81.47;60.38;;;16.60;99.90;;;;;;5091956;28;20039;-74
2023/05/09 07:31:29;;;;;;;75.97;58.70;;;16.70;99.90;;;;;;5079610;28;20038;-74
2023/05/09 07:33:55;;;;;;;82.53;60.08;;;16.60;99.90;;;;;;5093596;28;20046;-74
2023/05/09 07:36:21;;;;;;;76.00;57.58;;;16.60;99.90;;;;;;5093562;28;20036;-75
2023/05/09 07:38:49;;;;;;;74.65;57.88;;;16.60;99.90;;;;;;5088712;28;20031;-75
2023/05/09 07:41:15;;;;;;;62.75;52.25;;;16.70;99.90;;;;;;5101797;28;20044;-74
2023/05/09 07:43:40;;;;;;;62.42;51.17;;;16.70;99.90;;;;;;5105468;28;20409;-74
2023/05/09 07:46:06;;;;;;;63.13;52.42;;;16.70;99.90;;;;;;5090109;28;20290;-74
2023/05/09 07:48:31;;;;;;;65.88;53.17;;;16.70;99.90;;;;;;5104150;28;20490;-74
2023/05/09 07:50:57;;;;;;;58.13;49.03;;;16.80;99.90;;;;;;5082829;28;20378;-73
2023/05/09 07:53:25;;;;;;;57.13;48.67;;;16.90;99.90;;;;;;5110121;28;20035;-74
2023/05/09 07:55:51;;;;;;;54.58;46.45;;;16.90;99.90;;;;;;5108955;28;20035;-74
2023/05/09 07:58:16;;;;;;;65.78;52.92;;;17.00;99.90;;;;;;5106115;28;20040;-75
2023/05/09 08:00:42;;;;;;;57.20;48.70;;;17.10;99.90;;;;;;5109397;28;20101;-75
2023/05/09 08:03:10;;;;;;;50.25;43.50;;;17.20;99.90;;;;;;5092567;28;20467;-75
2023/05/09 08:05:45;;;;;;;50.53;44.55;;;17.20;99.90;;;;;;5108962;28;20048;-75
2023/05/09 08:08:35;;;;;;;49.35;42.38;;;17.30;99.90;;;;;;5110434;28;20108;-76
2023/05/09 08:11:13;;;;;;;48.53;41.83;;;17.40;99.90;;;;;;5093687;28;20059;-75
2023/05/09 08:13:52;;;;;;;44.50;39.17;;;17.50;99.90;;;;;;5092730;28;20043;-75
2023/05/09 08:16:42;;;;;;;45.60;38.17;;;17.60;99.90;;;;;;5102666;28;20420;-75
2023/05/09 08:19:34;;;;;;;46.53;40.28;;;17.60;99.90;;;;;;5092547;28;20089;-77
2023/05/09 08:22:26;;;;;;;40.67;36.03;;;17.70;99.90;;;;;;5077495;28;20040;-77
2023/05/09 08:25:00;;;;;;;41.75;37.17;;;17.80;99.90;;;;;;5126629;27;20054;-77
2023/05/09 08:27:30;;;;;;;41.75;36.80;;;17.80;99.90;;;;;;5116890;27;20062;-77
2023/05/09 08:30:13;;;;;;;40.30;35.75;;;17.80;99.90;;;;;;5096987;27;20089;-75
2023/05/09 08:32:41;;;;;;;39.85;35.47;;;17.80;99.90;;;;;;5083032;28;20040;-76
2023/05/09 08:35:07;;;;;;;37.25;33.33;;;17.70;99.90;;;;;;5087377;28;20161;-77
2023/05/09 08:37:37;;;;;;;37.40;33.58;;;17.60;99.90;;;;;;5113248;28;20060;-77
2023/05/09 08:40:16;;;;;;;39.65;35.45;;;17.70;99.90;;;;;;5088859;28;20031;-75
2023/05/09 08:42:52;;;;;;;38.55;34.35;;;17.70;99.90;;;;;;5106636;27;20045;-74
2023/05/09 08:45:31;;;;;;;40.72;34.63;;;17.90;99.90;;;;;;5103148;28;20035;-74
2023/05/09 08:48:03;;;;;;;36.38;32.53;;;18.00;99.90;;;;;;5101750;27;20405;-75
2023/05/09 08:50:39;;;;;;;34.13;30.52;;;18.10;99.90;;;;;;5105044;27;20043;-75
2023/05/09 08:53:09;;;;;;;35.97;32.15;;;18.20;99.90;;;;;;5088340;28;20075;-75
2023/05/09 08:55:43;;;;;;;31.58;28.15;;;18.40;99.90;;;;;;5090286;28;20043;-74
2023/05/09 08:58:21;;;;;;;34.38;30.77;;;18.40;99.90;;;;;;5104869;28;20413;-74
2023/05/09 09:01:11;;;;;;;33.15;29.65;;;18.60;99.90;;;;;;5106822;28;20039;-74
2023/05/09 09:03:48;;;;;;;30.63;27.70;;;18.70;99.90;;;;;;5094995;28;20039;-74
2023/05/09 09:06:33;;;;;;;30.17;26.98;;;18.80;99.90;;;;;;5087477;28;20055;-74
2023/05/09 09:09:19;;;;;;;30.80;27.60;;;18.90;99.90;;;;;;5105345;28;20436;-75
2023/05/09 09:12:17;;;;;;;28.98;25.90;;;19.00;99.90;;;;;;5107587;28;20463;-74
2023/05/09 09:14:55;;;;;;;28.48;25.65;;;19.20;99.90;;;;;;5078609;28;20163;-74
2023/05/09 09:17:29;;;;;;;26.70;24.00;;;19.40;99.90;;;;;;5104275;28;20039;-74
2023/05/09 09:19:59;;;;;;;29.20;26.25;;;19.40;99.90;;;;;;5108656;28;20053;-74
2023/05/09 09:22:32;;;;;;;27.85;25.02;;;19.50;99.90;;;;;;5102493;27;20055;-75
2023/05/09 09:24:59;;;;;;;26.63;24.02;;;19.60;99.90;;;;;;5094394;27;20078;-75
2023/05/09 09:27:24;;;;;;;27.25;24.65;;;19.80;99.90;;;;;;5104782;28;20485;-75
2023/05/09 09:29:50;;;;;;;26.02;23.55;;;19.90;99.90;;;;;;5102115;28;20059;-75
2023/05/09 09:32:17;;;;;;;24.45;22.15;;;20.20;99.90;;;;;;5091198;28;20031;-74
2023/05/09 09:34:42;;;;;;;26.05;23.55;;;20.10;99.90;;;;;;5112364;28;20073;-75
2023/05/09 09:37:08;;;;;;;24.10;21.70;;;20.10;99.90;;;;;;5109633;27;20408;-75
2023/05/09 09:39:34;;;;;;;22.50;20.20;;;20.20;99.90;;;;;;5132856;27;20127;-75
2023/05/09 09:42:12;;;;;;;24.15;21.65;;;20.30;99.90;;;;;;5116061;27;20042;-75
2023/05/09 09:44:37;;;;;;;26.05;23.65;;;20.40;99.90;;;;;;5115404;27;20046;-75
2023/05/09 09:47:08;;;;;;;24.02;21.83;;;20.40;99.90;;;;;;5112305;27;20035;-74
2023/05/09 09:49:34;;;;;;;24.70;22.27;;;20.40;99.90;;;;;;5108076;27;20061;-74
2023/05/09 09:52:00;;;;;;;23.48;21.27;;;20.50;99.90;;;;;;5114680;27;20504;-75
2023/05/09 09:54:32;;;;;;;24.55;22.05;;;20.60;99.90;;;;;;5132525;27;20047;-75
2023/05/09 09:57:00;;;;;;;24.10;21.98;;;20.60;99.90;;;;;;5132402;27;20136;-75
2023/05/09 09:59:26;;;;;;;23.92;21.73;;;20.80;99.90;;;;;;5115054;27;20077;-74
2023/05/09 10:02:11;;;;;;;23.63;21.42;;;20.90;99.90;;;;;;5085512;22;20053;-74
2023/05/09 10:04:48;;;;;;;24.52;22.23;;;20.90;99.90;;;;;;5003646;28;20050;-74
2023/05/09 10:07:23;;;;;;;24.63;22.42;;;20.80;99.90;;;;;;4975911;28;20133;-75
2023/05/09 10:10:05;;;;;;;24.67;22.27;;;20.70;99.90;;;;;;4990933;28;20042;-75
2023/05/09 10:12:47;;;;;;;24.42;22.13;;;20.50;99.90;;;;;;4991782;28;20038;-74
2023/05/09 10:15:20;;;;;;;24.58;22.25;;;20.30;99.90;;;;;;5072403;23;20460;-77
2023/05/09 10:17:50;;;;;;;22.95;20.75;;;20.10;99.90;;;;;;5070721;28;20511;-76
2023/05/09 10:20:16;;;;;;;22.80;20.77;;;19.90;99.90;;;;;;5071047;28;20048;-76
2023/05/09 10:22:42;;;;;;;24.35;22.23;;;19.80;99.90;;;;;;5039618;28;20037;-76
2023/05/09 10:25:16;;;;;;;24.00;21.90;;;19.60;99.90;;;;;;5056000;28;20143;-76
2023/05/09 10:27:44;;;;;;;23.67;21.38;;;19.60;99.90;;;;;;5061000;28;20138;-76
2023/05/09 10:30:28;;;;;;;24.45;22.10;;;19.60;99.90;;;;;;5051324;28;20380;-76
2023/05/09 10:33:06;;;;;;;26.35;23.95;;;19.60;99.90;;;;;;5068291;28;20041;-76
2023/05/09 10:35:35;;;;;;;26.35;23.83;;;19.60;99.90;;;;;;5047471;28;20040;-76
2023/05/09 10:38:01;;;;;;;23.38;21.17;;;19.70;99.90;;;;;;5043659;28;20037;-76
2023/05/09 10:40:28;;;;;;;22.75;20.70;;;19.70;99.90;;;;;;5061040;28;20046;-76
2023/05/09 10:42:54;;;;;;;22.63;20.42;;;19.80;99.90;;;;;;5068726;28;20506;-76
2023/05/09 10:45:21;;;;;;;21.20;19.25;;;19.80;99.90;;;;;;5070535;28;20044;-76
2023/05/09 10:47:49;;;;;;;20.33;18.42;;;19.90;99.90;;;;;;5053710;28;20086;-76
2023/05/09 10:50:15;;;;;;;20.65;18.73;;;19.90;99.90;;;;;;5050844;28;20084;-76
2023/05/09 10:53:15;;;;;;;22.70;20.60;;;19.70;99.90;;;;;;5050659;28;20064;-77
2023/05/09 10:55:56;;;;;;;23.23;21.13;;;19.50;99.90;;;;;;5056675;28;20040;-76
2023/05/09 10:58:27;;;;;;;23.08;21.02;;;19.40;99.90;;;;;;5070402;28;20032;-76
2023/05/09 11:00:58;;;;;;;25.00;22.70;;;19.40;99.90;;;;;;5054010;28;20076;-76
2023/05/09 11:03:25;;;;;;;22.42;20.45;;;19.30;99.90;;;;;;5070365;28;20044;-76
2023/05/09 11:05:53;;;;;;;22.75;20.75;;;19.50;99.90;;;;;;5070209;28;20048;-76
2023/05/09 11:08:20;;;;;;;22.38;20.27;;;19.50;99.90;;;;;;5070443;28;20123;-76
2023/05/09 11:10:46;;;;;;;21.63;19.67;;;19.50;99.90;;;;;;5070464;28;20051;-76
2023/05/09 11:13:12;;;;;;;21.58;19.60;;;19.50;99.90;;;;;;5059880;28;20053;-76
2023/05/09 11:15:50;;;;;;;21.20;19.30;;;19.60;99.90;;;;;;5050128;28;20065;-76
2023/05/09 11:18:16;;;;;;;21.65;19.65;;;19.60;99.90;;;;;;5050521;28;20487;-76
2023/05/09 11:20:43;;;;;;;21.20;19.13;;;19.70;99.90;;;;;;5050460;28;20067;-76
2023/05/09 11:23:10;;;;;;;21.42;19.52;;;19.70;99.90;;;;;;5050166;28;20087;-76
2023/05/09 11:25:38;;;;;;;23.48;21.38;;;19.80;99.90;;;;;;5050208;28;20083;-76
2023/05/09 11:28:05;;;;;;;23.83;21.40;;;20.00;99.90;;;;;;5050011;28;20063;-76
2023/05/09 11:30:41;;;;;;;23.63;21.42;;;20.10;99.90;;;;;;5062920;28;20048;-77
2023/05/09 11:33:22;;;;;;;23.20;21.05;;;20.10;99.90;;;;;;5070103;28;20090;-77
2023/05/09 11:36:28;;;;;;;23.67;21.58;;;20.10;99.90;;;;;;5067603;28;20036;-77
2023/05/09 11:39:06;;;;;;;26.02;23.63;;;20.00;99.90;;;;;;5072279;28;20106;-78
2023/05/09 11:41:46;;;;;;;25.80;23.55;;;19.80;99.90;;;;;;5081340;28;20135;-76
2023/05/09 11:44:20;;;;;;;27.65;25.25;;;19.70;99.90;;;;;;5052914;28;20504;-76
2023/05/09 11:46:47;;;;;;;28.35;25.67;;;19.70;99.90;;;;;;5058132;28;20099;-76
2023/05/09 11:49:13;;;;;;;26.42;24.17;;;19.60;99.90;;;;;;5073148;28;20048;-77
2023/05/09 11:51:40;;;;;;;25.75;23.42;;;19.70;99.90;;;;;;5074069;28;20123;-77
2023/05/09 11:54:06;;;;;;;24.77;22.67;;;19.70;99.90;;;;;;5084999;28;20132;-77
2023/05/09 11:56:38;;;;;;;25.95;23.85;;;19.80;99.90;;;;;;5093589;28;20115;-76
2023/05/09 11:59:04;;;;;;;26.58;24.17;;;19.70;99.90;;;;;;5078211;28;20078;-76
2023/05/09 12:01:30;;;;;;;27.42;25.02;;;19.80;99.90;;;;;;5073844;28;20064;-76
2023/05/09 12:03:57;;;;;;;27.33;24.92;;;19.70;99.90;;;;;;5071870;28;20032;-77
2023/05/09 12:06:25;;;;;;;27.92;25.38;;;19.60;99.90;;;;;;5087408;28;20048;-77
2023/05/09 12:08:52;;;;;;;29.08;26.55;;;19.40;99.90;;;;;;5057038;28;20114;-76
2023/05/09 12:11:18;;;;;;;29.70;27.25;;;19.30;99.90;;;;;;5073506;28;20060;-76
2023/05/09 12:13:47;;;;;;;29.23;26.80;;;19.20;99.90;;;;;;5072435;28;20047;-76
2023/05/09 12:16:17;;;;;;;28.10;25.67;;;19.10;99.90;;;;;;5086669;28;20402;-77
2023/05/09 12:18:50;;;;;;;31.35;28.75;;;18.90;99.90;;;;;;5074855;28;20032;-77
2023/05/09 12:21:17;;;;;;;30.27;27.58;;;18.90;99.90;;;;;;5077196;28;20045;-77
2023/05/09 12:23:43;;;;;;;32.13;29.45;;;18.80;99.90;;;;;;5077953;28;20036;-77
2023/05/09 12:26:08;;;;;;;29.25;26.77;;;18.80;99.90;;;;;;5060964;28;20040;-77
2023/05/09 12:28:35;;;;;;;32.65;29.75;;;18.80;99.90;;;;;;5070264;28;20047;-76